createdAt,value
2022-08-01T00:00:51.276Z,22.44
2022-08-01T00:03:19.104Z,22.45
2022-08-01T00:05:49.532Z,22.43
2022-08-01T00:08:17.271Z,22.43
2022-08-01T00:10:45.112Z,22.42
2022-08-01T00:13:12.907Z,22.42
2022-08-01T00:15:40.668Z,22.41
2022-08-01T00:18:08.398Z,22.38
2022-08-01T00:20:36.189Z,22.39
2022-08-01T00:23:06.033Z,22.36
2022-08-01T00:25:34.698Z,22.35
2022-08-01T00:28:04.313Z,22.35
2022-08-01T00:30:32.669Z,22.34
2022-08-01T00:33:00.487Z,22.32
2022-08-01T00:35:28.293Z,22.15
2022-08-01T00:37:56.629Z,22.29
2022-08-01T00:40:25.856Z,22.28
2022-08-01T00:42:53.689Z,22.27
2022-08-01T00:45:21.516Z,22.25
2022-08-01T00:47:49.336Z,22.25
2022-08-01T00:50:24.824Z,22.23
2022-08-01T00:52:53.011Z,22.23
2022-08-01T00:55:21.669Z,22.22
2022-08-01T00:58:04.575Z,22.21
2022-08-01T01:00:52.993Z,22.20
2022-08-01T01:03:26.444Z,22.19
2022-08-01T01:06:21.000Z,22.17
2022-08-01T01:08:56.343Z,22.03
2022-08-01T01:11:30.428Z,22.16
2022-08-01T01:14:06.350Z,22.14
2022-08-01T01:16:37.941Z,22.13
2022-08-01T01:19:11.031Z,22.11
2022-08-01T01:22:03.176Z,22.11
2022-08-01T01:24:40.474Z,22.08
2022-08-01T01:27:20.287Z,22.09
2022-08-01T01:29:58.832Z,22.07
2022-08-01T01:32:34.981Z,22.08
2022-08-01T01:35:07.476Z,22.06
2022-08-01T01:37:39.734Z,21.90
2022-08-01T01:40:09.734Z,22.05
2022-08-01T01:42:38.274Z,22.05
2022-08-01T01:45:09.421Z,22.05
2022-08-01T01:47:40.204Z,22.05
2022-08-01T01:50:13.707Z,22.04
2022-08-01T01:52:44.357Z,22.03
2022-08-01T01:55:14.016Z,22.03
2022-08-01T01:57:44.408Z,22.03
2022-08-01T02:00:15.838Z,22.04
2022-08-01T02:02:45.133Z,22.02
2022-08-01T02:05:15.001Z,22.03
2022-08-01T02:07:43.674Z,22.04
2022-08-01T02:10:13.962Z,22.02
2022-08-01T02:12:46.501Z,21.88
2022-08-01T02:15:17.385Z,22.02
2022-08-01T02:17:48.694Z,22.01
2022-08-01T02:20:17.244Z,22.00
2022-08-01T02:22:52.248Z,21.99
2022-08-01T02:25:25.792Z,21.97
2022-08-01T02:28:02.574Z,21.97
2022-08-01T02:30:36.206Z,21.96
2022-08-01T02:33:07.284Z,21.97
2022-08-01T02:36:30.628Z,21.95
2022-08-01T02:38:36.540Z,21.95
2022-08-01T02:41:09.783Z,21.94
2022-08-01T02:43:40.967Z,21.94
2022-08-01T02:46:14.281Z,21.93
2022-08-01T02:48:44.727Z,21.92
2022-08-01T02:51:14.593Z,21.92
2022-08-01T02:53:44.996Z,21.91
2022-08-01T02:56:15.587Z,21.75
2022-08-01T02:58:45.329Z,21.76
2022-08-01T03:01:16.592Z,21.88
2022-08-01T03:03:47.328Z,21.88
2022-08-01T03:06:16.514Z,21.87
2022-08-01T03:08:45.932Z,21.86
2022-08-01T03:11:15.344Z,21.86
2022-08-01T03:13:45.220Z,21.85
2022-08-01T03:16:15.511Z,21.83
2022-08-01T03:18:45.857Z,21.82
2022-08-01T03:21:15.617Z,21.82
2022-08-01T03:23:45.351Z,21.81
2022-08-01T03:26:13.395Z,21.80
2022-08-01T03:28:43.715Z,21.79
2022-08-01T03:31:12.673Z,21.77
2022-08-01T03:33:42.074Z,21.76
2022-08-01T03:36:13.569Z,21.75
2022-08-01T03:38:43.582Z,21.74
2022-08-01T03:41:14.148Z,21.75
2022-08-01T03:43:47.885Z,21.74
2022-08-01T03:46:21.022Z,21.72
2022-08-01T03:48:52.875Z,21.71
2022-08-01T03:51:24.385Z,21.69
2022-08-01T03:53:54.462Z,21.70
2022-08-01T03:56:23.810Z,21.63
2022-08-01T03:58:53.278Z,21.56
2022-08-01T04:01:21.776Z,21.68
2022-08-01T04:03:51.245Z,21.67
2022-08-01T04:06:19.454Z,21.67
2022-08-01T04:08:56.379Z,21.68
2022-08-01T04:11:26.129Z,21.67
2022-08-01T04:13:54.654Z,21.65
2022-08-01T04:16:24.157Z,21.65
2022-08-01T04:18:53.519Z,21.65
2022-08-01T04:21:25.355Z,21.63
2022-08-01T04:23:56.070Z,21.62
2022-08-01T04:26:25.436Z,21.62
2022-08-01T04:28:55.804Z,21.62
2022-08-01T04:31:27.388Z,21.62
2022-08-01T04:33:58.476Z,21.52
2022-08-01T04:36:29.289Z,21.62
2022-08-01T04:39:00.280Z,21.61
2022-08-01T04:41:28.651Z,21.61
2022-08-01T04:43:56.960Z,21.62
2022-08-01T04:46:25.034Z,21.61
2022-08-01T04:48:53.347Z,21.61
2022-08-01T04:51:23.354Z,21.59
2022-08-01T04:53:52.030Z,21.59
2022-08-01T04:56:20.277Z,21.55
2022-08-01T04:58:48.459Z,21.58
2022-08-01T05:01:16.590Z,21.57
2022-08-01T05:03:45.098Z,21.55
2022-08-01T05:06:12.879Z,21.55
2022-08-01T05:08:42.416Z,21.52
2022-08-01T05:11:10.168Z,21.53
2022-08-01T05:13:38.151Z,21.52
2022-08-01T05:16:08.220Z,21.51
2022-08-01T05:18:35.932Z,21.48
2022-08-01T05:21:03.958Z,21.50
2022-08-01T05:23:43.056Z,21.47
2022-08-01T05:26:15.066Z,21.35
2022-08-01T05:28:43.663Z,21.48
2022-08-01T05:31:11.815Z,21.46
2022-08-01T05:33:39.566Z,21.46
2022-08-01T05:36:07.523Z,21.44
2022-08-01T05:38:35.424Z,21.42
2022-08-01T05:41:03.208Z,21.42
2022-08-01T05:43:32.423Z,21.42
2022-08-01T05:46:00.430Z,21.41
2022-08-01T05:48:28.326Z,21.41
2022-08-01T05:50:58.741Z,21.40
2022-08-01T05:53:27.043Z,21.39
2022-08-01T05:55:54.849Z,21.40
2022-08-01T05:58:22.738Z,21.41
2022-08-01T06:00:52.135Z,21.40
2022-08-01T06:03:20.181Z,21.41
2022-08-01T06:05:48.327Z,21.33
2022-08-01T06:08:16.105Z,21.41
2022-08-01T06:10:43.857Z,21.42
2022-08-01T06:13:11.791Z,21.41
2022-08-01T06:15:39.650Z,21.42
2022-08-01T06:18:08.788Z,21.40
2022-08-01T06:20:36.518Z,21.42
2022-08-01T06:23:23.782Z,21.41
2022-08-01T06:25:54.683Z,21.41
2022-08-01T06:28:22.573Z,21.40
2022-08-01T06:30:50.396Z,21.41
2022-08-01T06:33:19.548Z,21.43
2022-08-01T06:35:47.333Z,21.43
2022-08-01T06:38:15.201Z,21.44
2022-08-01T06:40:43.173Z,21.44
2022-08-01T06:43:12.335Z,21.46
2022-08-01T06:45:40.653Z,21.46
2022-08-01T06:48:08.544Z,21.47
2022-08-01T06:50:37.935Z,21.37
2022-08-01T06:53:06.105Z,21.46
2022-08-01T06:55:34.082Z,21.43
2022-08-01T06:58:01.895Z,21.44
2022-08-01T07:00:29.818Z,21.47
2022-08-01T07:02:59.569Z,21.49
2022-08-01T07:05:27.580Z,21.38
2022-08-01T07:07:56.954Z,21.55
2022-08-01T07:10:24.928Z,21.57
2022-08-01T07:12:52.795Z,21.59
2022-08-01T07:15:23.034Z,21.61
2022-08-01T07:17:50.847Z,21.62
2022-08-01T07:20:18.611Z,21.62
2022-08-01T07:22:47.604Z,21.63
2022-08-01T07:25:17.670Z,21.62
2022-08-01T07:27:45.613Z,21.63
2022-08-01T07:30:14.204Z,21.62
2022-08-01T07:32:42.011Z,21.63
2022-08-01T07:35:10.540Z,21.62
2022-08-01T07:37:47.846Z,21.62
2022-08-01T07:40:19.466Z,21.61
2022-08-01T07:42:47.254Z,21.61
2022-08-01T07:45:15.730Z,21.60
2022-08-01T07:47:43.520Z,21.45
2022-08-01T07:50:13.500Z,21.47
2022-08-01T07:52:41.316Z,21.59
2022-08-01T07:55:10.482Z,21.60
2022-08-01T07:57:39.950Z,21.47
2022-08-01T08:00:09.842Z,21.60
2022-08-01T08:02:37.782Z,21.62
2022-08-01T08:05:07.533Z,21.62
2022-08-01T08:07:35.432Z,21.64
2022-08-01T08:10:03.256Z,21.67
2022-08-01T08:12:31.384Z,21.66
2022-08-01T08:15:01.965Z,21.58
2022-08-01T08:17:36.123Z,21.60
2022-08-01T08:20:05.335Z,21.71
2022-08-01T08:22:36.872Z,21.72
2022-08-01T08:25:05.151Z,21.59
2022-08-01T08:27:37.319Z,21.73
2022-08-01T08:30:09.392Z,21.75
2022-08-01T08:32:37.723Z,21.75
2022-08-01T08:35:06.885Z,21.74
2022-08-01T08:37:39.075Z,21.75
2022-08-01T08:40:12.126Z,21.76
2022-08-01T08:42:42.249Z,21.77
2022-08-01T08:45:12.635Z,21.81
2022-08-01T08:47:43.746Z,21.80
2022-08-01T08:50:11.770Z,21.81
2022-08-01T08:52:41.194Z,21.83
2022-08-01T08:55:11.816Z,21.84
2022-08-01T08:57:42.218Z,21.84
2022-08-01T09:00:13.024Z,21.86
2022-08-01T09:02:43.398Z,21.88
2022-08-01T09:05:15.052Z,21.88
2022-08-01T09:07:46.826Z,21.91
2022-08-01T09:10:14.729Z,21.92
2022-08-01T09:13:07.559Z,21.93
2022-08-01T09:15:48.085Z,21.94
2022-08-01T09:18:33.608Z,21.94
2022-08-01T09:21:26.890Z,21.94
2022-08-01T09:23:59.711Z,21.82
2022-08-01T09:26:32.453Z,21.98
2022-08-01T09:29:04.056Z,21.90
2022-08-01T09:31:42.140Z,22.01
2022-08-01T09:34:15.810Z,22.04
2022-08-01T09:36:54.275Z,22.05
2022-08-01T09:39:23.973Z,22.12
2022-08-01T09:41:51.939Z,22.12
2022-08-01T09:44:42.407Z,22.16
2022-08-01T09:47:15.676Z,22.16
2022-08-01T09:49:50.799Z,22.19
2022-08-01T09:52:21.139Z,22.20
2022-08-01T09:54:56.116Z,22.18
2022-08-01T09:57:24.259Z,22.23
2022-08-01T09:59:59.008Z,22.25
2022-08-01T10:02:32.497Z,22.26
2022-08-01T10:05:09.033Z,22.28
2022-08-01T10:07:42.758Z,22.30
2022-08-01T10:10:14.702Z,22.33
2022-08-01T10:12:44.377Z,22.24
2022-08-01T10:15:17.893Z,22.39
2022-08-01T10:17:57.248Z,22.41
2022-08-01T10:20:30.075Z,22.43
2022-08-01T10:23:06.234Z,22.45
2022-08-01T10:25:43.215Z,22.47
2022-08-01T10:28:18.237Z,22.50
2022-08-01T10:30:50.079Z,22.53
2022-08-01T10:33:50.900Z,22.45
2022-08-01T10:36:11.771Z,22.49
2022-08-01T10:38:42.014Z,22.61
2022-08-01T10:41:11.740Z,22.65
2022-08-01T10:43:41.405Z,22.65
2022-08-01T10:46:13.761Z,22.67
2022-08-01T10:48:49.118Z,22.67
2022-08-01T10:51:21.496Z,22.66
2022-08-01T10:53:50.343Z,22.67
2022-08-01T10:56:26.411Z,22.55
2022-08-01T10:59:05.774Z,22.68
2022-08-01T11:01:37.602Z,22.72
2022-08-01T11:04:15.956Z,22.71
2022-08-01T11:07:06.331Z,22.71
2022-08-01T11:09:51.011Z,22.72
2022-08-01T11:12:24.806Z,22.76
2022-08-01T11:15:32.389Z,22.79
2022-08-01T11:18:03.183Z,22.80
2022-08-01T11:20:39.486Z,22.81
2022-08-01T11:23:23.285Z,22.78
2022-08-01T11:26:10.721Z,22.77
2022-08-01T11:28:41.227Z,22.79
2022-08-01T11:31:37.168Z,22.80
2022-08-01T11:34:15.571Z,22.81
2022-08-01T11:37:00.393Z,22.82
2022-08-01T11:39:29.573Z,22.85
2022-08-01T11:42:17.797Z,22.89
2022-08-01T11:44:52.321Z,22.86
2022-08-01T11:47:21.246Z,22.93
2022-08-01T11:49:55.963Z,22.92
2022-08-01T11:52:30.375Z,22.91
2022-08-01T11:55:00.532Z,22.92
2022-08-01T11:57:33.959Z,22.93
2022-08-01T12:00:08.806Z,22.92
2022-08-01T12:02:36.954Z,22.93
2022-08-01T12:05:08.501Z,22.92
2022-08-01T12:07:42.282Z,22.93
2022-08-01T12:10:12.797Z,22.72
2022-08-01T12:12:45.800Z,22.99
2022-08-01T12:15:14.295Z,22.90
2022-08-01T12:17:47.046Z,22.98
2022-08-01T12:20:31.166Z,22.97
2022-08-01T12:23:03.201Z,23.00
2022-08-01T12:25:31.352Z,23.04
2022-08-01T12:28:02.517Z,23.08
2022-08-01T12:30:32.651Z,23.11
2022-08-01T12:33:00.660Z,22.99
2022-08-01T12:35:30.850Z,23.16
2022-08-01T12:38:04.454Z,23.18
2022-08-01T12:40:36.681Z,23.21
2022-08-01T12:43:07.355Z,23.20
2022-08-01T12:45:40.541Z,23.14
2022-08-01T12:48:22.340Z,23.23
2022-08-01T12:50:51.992Z,23.24
2022-08-01T12:53:22.294Z,23.26
2022-08-01T12:55:59.575Z,23.27
2022-08-01T12:58:34.002Z,23.32
2022-08-01T13:01:06.987Z,23.34
2022-08-01T13:03:35.641Z,23.37
2022-08-01T13:06:11.879Z,23.40
2022-08-01T13:08:40.848Z,23.39
2022-08-01T13:11:11.078Z,23.42
2022-08-01T13:13:43.774Z,23.44
2022-08-01T13:16:25.982Z,23.45
2022-08-01T13:19:00.334Z,23.37
2022-08-01T13:21:52.251Z,23.45
2022-08-01T13:24:25.860Z,23.45
2022-08-01T13:26:56.964Z,23.45
2022-08-01T13:29:31.978Z,23.48
2022-08-01T13:32:00.600Z,23.47
2022-08-01T13:34:35.851Z,23.35
2022-08-01T13:37:04.522Z,23.30
2022-08-01T13:39:43.236Z,23.44
2022-08-01T13:42:11.561Z,23.44
2022-08-01T13:44:47.192Z,23.43
2022-08-01T13:47:16.233Z,23.44
2022-08-01T13:49:45.198Z,23.45
2022-08-01T13:52:13.031Z,23.46
2022-08-01T13:54:42.365Z,23.47
2022-08-01T13:57:10.393Z,23.51
2022-08-01T13:59:38.594Z,23.52
2022-08-01T14:02:06.731Z,23.53
2022-08-01T14:04:34.728Z,23.56
2022-08-01T14:07:09.606Z,23.55
2022-08-01T14:09:57.626Z,23.54
2022-08-01T14:12:28.947Z,23.61
2022-08-01T14:14:57.494Z,23.50
2022-08-01T14:17:25.375Z,23.63
2022-08-01T14:19:57.505Z,23.62
2022-08-01T14:22:25.314Z,23.60
2022-08-01T14:24:53.073Z,23.59
2022-08-01T14:27:26.175Z,23.59
2022-08-01T14:30:02.717Z,23.59
2022-08-01T14:32:31.903Z,23.59
2022-08-01T14:34:59.703Z,23.60
2022-08-01T14:37:28.889Z,23.61
2022-08-01T14:39:57.973Z,23.65
2022-08-01T14:42:26.818Z,23.56
2022-08-01T14:44:55.945Z,23.71
2022-08-01T14:47:24.043Z,23.62
2022-08-01T14:49:52.350Z,23.63
2022-08-01T14:52:20.690Z,23.77
2022-08-01T14:54:48.631Z,23.71
2022-08-01T14:57:19.226Z,23.83
2022-08-01T14:59:47.256Z,23.82
2022-08-01T15:02:18.337Z,23.84
2022-08-01T15:04:46.999Z,23.69
2022-08-01T15:07:15.464Z,23.72
2022-08-01T15:09:43.971Z,23.63
2022-08-01T15:12:12.391Z,23.75
2022-08-01T15:14:49.913Z,23.76
2022-08-01T15:17:20.673Z,23.76
2022-08-01T15:19:52.143Z,23.77
2022-08-01T15:22:20.363Z,23.78
2022-08-01T15:24:48.160Z,23.79
2022-08-01T15:27:16.105Z,23.80
2022-08-01T15:29:43.980Z,23.83
2022-08-01T15:32:12.004Z,23.84
2022-08-01T15:34:41.152Z,23.84
2022-08-01T15:37:10.415Z,23.85
2022-08-01T15:39:39.151Z,23.88
2022-08-01T15:42:09.508Z,23.88
2022-08-01T15:44:37.786Z,23.88
2022-08-01T15:47:06.684Z,23.88
2022-08-01T15:49:37.126Z,23.88
2022-08-01T15:52:07.682Z,23.89
2022-08-01T15:54:49.495Z,23.88
2022-08-01T15:57:17.291Z,23.89
2022-08-01T15:59:45.128Z,23.88
2022-08-01T16:02:14.880Z,23.88
2022-08-01T16:04:42.860Z,23.88
2022-08-01T16:07:12.959Z,23.81
2022-08-01T16:09:40.720Z,23.87
2022-08-01T16:12:13.986Z,23.87
2022-08-01T16:14:41.724Z,23.88
2022-08-01T16:17:09.670Z,23.88
2022-08-01T16:19:37.629Z,23.88
2022-08-01T16:22:05.746Z,23.84
2022-08-01T16:24:36.787Z,23.86
2022-08-01T16:27:05.060Z,23.85
2022-08-01T16:29:33.816Z,23.85
2022-08-01T16:32:06.632Z,23.74
2022-08-01T16:34:46.800Z,23.84
2022-08-01T16:37:15.400Z,23.84
2022-08-01T16:39:45.545Z,23.84
2022-08-01T16:42:15.531Z,23.85
2022-08-01T16:44:45.016Z,23.86
2022-08-01T16:47:12.906Z,23.87
2022-08-01T16:49:40.929Z,23.87
2022-08-01T16:52:09.265Z,23.87
2022-08-01T16:54:37.365Z,23.87
2022-08-01T16:57:07.909Z,23.87
2022-08-01T16:59:41.389Z,23.76
2022-08-01T17:02:09.795Z,23.87
2022-08-01T17:04:37.793Z,23.87
2022-08-01T17:07:05.873Z,23.86
2022-08-01T17:09:33.952Z,23.85
2022-08-01T17:12:01.760Z,23.85
2022-08-01T17:14:33.403Z,23.85
2022-08-01T17:17:01.210Z,23.86
2022-08-01T17:19:33.205Z,23.81
2022-08-01T17:22:01.323Z,23.86
2022-08-01T17:24:29.124Z,23.86
2022-08-01T17:26:56.924Z,23.85
2022-08-01T17:29:24.817Z,23.85
2022-08-01T17:31:54.016Z,23.65
2022-08-01T17:34:21.842Z,23.84
2022-08-01T17:36:49.634Z,23.83
2022-08-01T17:39:21.862Z,23.82
2022-08-01T17:41:51.340Z,23.81
2022-08-01T17:44:19.140Z,23.82
2022-08-01T17:46:46.899Z,23.80
2022-08-01T17:49:21.704Z,23.81
2022-08-01T17:52:01.231Z,23.81
2022-08-01T17:54:29.046Z,23.81
2022-08-01T17:56:56.867Z,23.81
2022-08-01T17:59:24.817Z,23.81
2022-08-01T18:01:52.653Z,23.77
2022-08-01T18:04:22.172Z,23.79
2022-08-01T18:06:58.754Z,23.78
2022-08-01T18:09:26.810Z,23.77
2022-08-01T18:11:54.648Z,23.77
2022-08-01T18:14:22.703Z,23.75
2022-08-01T18:17:11.150Z,23.74
2022-08-01T18:19:41.329Z,23.73
2022-08-01T18:22:31.188Z,23.71
2022-08-01T18:25:08.395Z,23.70
2022-08-01T18:28:18.940Z,23.54
2022-08-01T18:30:24.974Z,23.65
2022-08-01T18:32:52.771Z,23.64
2022-08-01T18:35:23.755Z,23.63
2022-08-01T18:38:01.041Z,23.62
2022-08-01T18:40:29.960Z,23.62
2022-08-01T18:42:57.717Z,23.61
2022-08-01T18:45:25.583Z,23.60
2022-08-01T18:47:54.190Z,23.60
2022-08-01T18:50:24.757Z,23.60
2022-08-01T18:52:52.532Z,23.56
2022-08-01T18:55:21.075Z,23.55
2022-08-01T18:57:48.919Z,23.58
2022-08-01T19:00:17.456Z,23.52
2022-08-01T19:02:48.364Z,23.54
2022-08-01T19:05:16.215Z,23.54
2022-08-01T19:08:04.955Z,23.54
2022-08-01T19:10:33.388Z,23.53
2022-08-01T19:13:02.439Z,23.52
2022-08-01T19:15:30.256Z,23.51
2022-08-01T19:17:58.238Z,23.49
2022-08-01T19:20:26.076Z,23.37
2022-08-01T19:22:55.259Z,23.47
2022-08-01T19:25:24.025Z,23.45
2022-08-01T19:27:52.449Z,23.44
2022-08-01T19:30:21.048Z,23.37
2022-08-01T19:32:49.531Z,23.42
2022-08-01T19:35:17.953Z,23.41
2022-08-01T19:37:47.827Z,23.38
2022-08-01T19:40:26.780Z,23.36
2022-08-01T19:42:57.118Z,23.32
2022-08-01T19:45:25.815Z,23.33
2022-08-01T19:47:56.992Z,23.32
2022-08-01T19:50:26.350Z,23.26
2022-08-01T19:52:56.149Z,23.27
2022-08-01T19:55:27.429Z,23.26
2022-08-01T19:58:25.757Z,23.24
2022-08-01T20:00:45.890Z,23.22
2022-08-01T20:03:16.198Z,23.19
2022-08-01T20:05:44.912Z,23.20
2022-08-01T20:08:13.100Z,23.18
2022-08-01T20:10:42.504Z,23.01
2022-08-01T20:13:11.685Z,23.13
2022-08-01T20:15:39.919Z,23.13
2022-08-01T20:18:08.015Z,23.09
2022-08-01T20:20:37.834Z,23.08
2022-08-01T20:23:10.469Z,23.05
2022-08-01T20:25:50.491Z,23.04
2022-08-01T20:28:24.006Z,23.02
2022-08-01T20:30:55.972Z,23.00
2022-08-01T20:33:24.180Z,22.98
2022-08-01T20:35:54.098Z,22.96
2022-08-01T20:38:24.051Z,22.94
2022-08-01T20:40:54.349Z,22.92
2022-08-01T20:43:23.621Z,22.91
2022-08-01T20:45:52.464Z,22.90
2022-08-01T20:48:21.265Z,22.89
2022-08-01T20:51:08.262Z,22.88
2022-08-01T20:53:40.898Z,22.87
2022-08-01T20:56:15.688Z,22.87
2022-08-01T20:58:58.594Z,22.86
2022-08-01T21:01:30.901Z,22.84
2022-08-01T21:04:14.699Z,22.83
2022-08-01T21:06:47.162Z,22.82
2022-08-01T21:09:21.389Z,22.77
2022-08-01T21:11:52.592Z,22.78
2022-08-01T21:14:21.984Z,22.72
2022-08-01T21:16:58.472Z,22.76
2022-08-01T21:19:28.637Z,22.73
2022-08-01T21:22:08.298Z,22.68
2022-08-01T21:24:58.392Z,22.70
2022-08-01T21:27:33.276Z,22.67
2022-08-01T21:30:04.607Z,22.66
2022-08-01T21:32:33.846Z,22.64
2022-08-01T21:35:03.072Z,22.54
2022-08-01T21:37:31.774Z,22.61
2022-08-01T21:40:02.798Z,22.38
2022-08-01T21:42:40.680Z,22.58
2022-08-01T21:45:10.579Z,22.42
2022-08-01T21:47:39.013Z,22.53
2022-08-01T21:50:09.563Z,22.51
2022-08-01T21:52:44.626Z,22.50
2022-08-01T21:55:21.779Z,22.47
2022-08-01T21:58:14.076Z,22.46
2022-08-01T22:00:46.449Z,22.44
2022-08-01T22:03:24.164Z,22.42
2022-08-01T22:05:53.688Z,22.40
2022-08-01T22:08:31.032Z,22.37
2022-08-01T22:11:01.856Z,22.35
2022-08-01T22:13:31.264Z,22.34
2022-08-01T22:15:59.995Z,22.31
2022-08-01T22:18:28.469Z,22.28
2022-08-01T22:20:56.627Z,22.28
2022-08-01T22:23:24.927Z,22.26
2022-08-01T22:25:54.188Z,22.23
2022-08-01T22:28:23.345Z,22.22
2022-08-01T22:30:54.625Z,22.20
2022-08-01T22:33:22.768Z,22.18
2022-08-01T22:35:52.938Z,22.17
2022-08-01T22:38:22.929Z,22.16
2022-08-01T22:40:52.915Z,22.16
2022-08-01T22:43:31.998Z,22.13
2022-08-01T22:46:17.168Z,22.11
2022-08-01T22:48:50.962Z,22.08
2022-08-01T22:51:39.578Z,22.07
2022-08-01T22:54:10.171Z,22.07
2022-08-01T22:56:40.646Z,22.05
2022-08-01T22:59:15.145Z,22.03
2022-08-01T23:01:48.735Z,22.02
2022-08-01T23:04:27.626Z,22.01
2022-08-01T23:07:05.385Z,21.99
2022-08-01T23:09:39.387Z,21.98
2022-08-01T23:12:23.638Z,21.84
2022-08-01T23:14:52.381Z,21.94
2022-08-01T23:17:27.388Z,21.82
2022-08-01T23:19:58.938Z,21.93
2022-08-01T23:22:30.097Z,21.91
2022-08-01T23:25:03.320Z,21.90
2022-08-01T23:27:54.199Z,21.89
2022-08-01T23:30:25.498Z,21.87
2022-08-01T23:32:55.287Z,21.75
2022-08-01T23:35:23.797Z,21.86
2022-08-01T23:37:52.082Z,21.85
2022-08-01T23:40:22.231Z,21.83
2022-08-01T23:42:54.705Z,21.82
2022-08-01T23:45:23.365Z,21.81
2022-08-01T23:47:51.556Z,21.74
2022-08-01T23:50:21.997Z,21.77
2022-08-01T23:52:50.905Z,21.74
2022-08-01T23:55:19.600Z,21.73
2022-08-01T23:57:54.476Z,21.71
